Time;durP1;ratioP1;P1;durP2;ratioP2;P2;SDS_P1;SDS_P2;PMS_P1;PMS_P2;Temp;Humidity;BMP_temperature;BMP_pressure;BME280_temperature;BME280_humidity;BME280_pressure;Samples;Min_cycle;Max_cycle;Signal;HPM_P1;HPM_P2
2021/03/03 00:00:46;;;;;;;18.90;10.43;;;9.00;96.10;;;;;;2064632;28;20026;-75
2021/03/03 00:01:46;;;;;;;20.48;11.00;;;9.00;96.00;;;;;;2064817;28;20101;-75
2021/03/03 00:02:47;;;;;;;16.50;11.55;;;9.00;96.20;;;;;;2064726;28;20101;-74
2021/03/03 00:03:48;;;;;;;16.13;11.13;;;8.90;96.20;;;;;;2064787;28;20030;-75
2021/03/03 00:04:48;;;;;;;16.95;11.05;;;9.00;96.20;;;;;;2064881;28;20097;-75
2021/03/03 00:05:49;;;;;;;14.93;10.80;;;8.90;96.30;;;;;;2064084;28;20120;-75
2021/03/03 00:06:50;;;;;;;22.90;12.38;;;8.90;96.30;;;;;;2063706;28;20033;-75
2021/03/03 00:07:51;;;;;;;18.77;11.70;;;8.90;96.20;;;;;;2064742;28;20022;-75
2021/03/03 00:08:51;;;;;;;14.95;10.10;;;8.90;96.30;;;;;;2064574;28;20023;-74
2021/03/03 00:09:52;;;;;;;16.20;10.18;;;8.80;96.40;;;;;;2064968;28;20033;-74
2021/03/03 00:10:52;;;;;;;15.27;10.40;;;8.80;96.40;;;;;;2064396;28;20094;-74
2021/03/03 00:11:53;;;;;;;17.40;10.77;;;8.80;96.60;;;;;;2062975;28;20053;-75
2021/03/03 00:12:54;;;;;;;18.23;11.60;;;8.70;96.50;;;;;;2063450;28;20026;-74
2021/03/03 00:13:54;;;;;;;16.80;11.25;;;8.70;96.80;;;;;;2064557;28;20019;-75
2021/03/03 00:14:55;;;;;;;15.82;11.32;;;8.70;96.70;;;;;;2064690;28;20030;-75
2021/03/03 00:15:55;;;;;;;17.70;11.55;;;8.70;96.90;;;;;;2064022;28;20122;-75
2021/03/03 00:16:56;;;;;;;16.80;11.68;;;8.70;97.00;;;;;;2063589;28;20027;-74
2021/03/03 00:17:56;;;;;;;19.35;11.48;;;8.60;97.00;;;;;;2064538;28;20463;-76
2021/03/03 00:18:57;;;;;;;18.48;11.43;;;8.60;97.00;;;;;;2064536;28;20034;-75
2021/03/03 00:19:58;;;;;;;17.52;11.48;;;8.60;97.20;;;;;;2064621;28;20147;-74
2021/03/03 00:20:59;;;;;;;17.23;11.15;;;8.60;97.10;;;;;;2064664;28;20031;-75
2021/03/03 00:21:59;;;;;;;19.55;11.90;;;8.50;97.20;;;;;;2072047;28;20021;-74
2021/03/03 00:23:00;;;;;;;16.52;11.25;;;8.50;97.40;;;;;;2071928;28;20034;-75
2021/03/03 00:24:00;;;;;;;20.83;11.82;;;8.50;97.50;;;;;;2063983;28;20022;-75
2021/03/03 00:25:01;;;;;;;18.15;11.60;;;8.50;97.70;;;;;;2064364;28;20023;-75
2021/03/03 00:26:02;;;;;;;17.70;11.85;;;8.50;97.80;;;;;;2064501;28;20032;-74
2021/03/03 00:27:03;;;;;;;17.48;11.98;;;8.40;97.80;;;;;;2064097;28;20475;-74
2021/03/03 00:28:03;;;;;;;17.63;11.40;;;8.40;97.80;;;;;;2064243;28;20026;-74
2021/03/03 00:29:04;;;;;;;19.25;11.02;;;8.40;97.90;;;;;;2064644;28;20037;-74
2021/03/03 00:30:05;;;;;;;19.17;11.43;;;8.40;98.10;;;;;;2064629;28;20022;-74
2021/03/03 00:31:06;;;;;;;15.38;11.20;;;8.40;98.30;;;;;;2064280;28;20027;-74
2021/03/03 00:32:06;;;;;;;20.60;12.15;;;8.30;98.30;;;;;;2064353;28;20030;-75
2021/03/03 00:33:07;;;;;;;20.50;12.23;;;8.30;98.40;;;;;;2064682;28;20185;-75
2021/03/03 00:34:08;;;;;;;17.90;11.77;;;8.30;98.40;;;;;;2064506;28;20050;-75
2021/03/03 00:35:10;;;;;;;19.02;11.65;;;8.30;98.50;;;;;;2064405;28;20030;-75
2021/03/03 00:36:10;;;;;;;19.05;11.82;;;8.30;98.70;;;;;;2064307;28;20114;-74
2021/03/03 00:37:11;;;;;;;18.90;11.77;;;8.30;98.80;;;;;;2071432;28;20033;-74
2021/03/03 00:38:11;;;;;;;18.17;11.82;;;8.20;98.90;;;;;;2071908;28;20030;-74
2021/03/03 00:39:12;;;;;;;18.23;11.90;;;8.20;98.90;;;;;;2064224;28;20026;-75
2021/03/03 00:40:13;;;;;;;19.17;10.73;;;8.20;99.10;;;;;;2064545;28;20466;-73
2021/03/03 00:41:13;;;;;;;16.75;12.10;;;8.20;99.20;;;;;;2064259;28;20057;-74
2021/03/03 00:42:14;;;;;;;17.17;11.93;;;8.20;99.20;;;;;;2064483;28;20022;-75
2021/03/03 00:43:15;;;;;;;19.23;11.55;;;8.20;99.30;;;;;;2064400;28;20018;-75
2021/03/03 00:44:15;;;;;;;19.65;12.13;;;8.10;99.20;;;;;;2064490;28;20072;-74
2021/03/03 00:45:16;;;;;;;20.88;12.35;;;8.10;99.30;;;;;;2071813;28;20025;-75
2021/03/03 00:46:17;;;;;;;18.55;12.00;;;8.10;99.50;;;;;;2071873;28;20030;-74
2021/03/03 00:47:17;;;;;;;19.15;12.13;;;8.10;99.60;;;;;;2071222;28;20033;-74
2021/03/03 00:48:18;;;;;;;16.38;11.57;;;8.10;99.60;;;;;;2071826;28;20046;-74
2021/03/03 00:49:19;;;;;;;16.00;11.77;;;8.10;99.60;;;;;;2071540;28;20077;-74
2021/03/03 00:50:19;;;;;;;18.13;11.93;;;8.10;99.70;;;;;;2071960;28;20457;-74
2021/03/03 00:51:20;;;;;;;18.83;11.63;;;8.10;99.80;;;;;;2064104;28;20429;-74
2021/03/03 00:52:21;;;;;;;21.42;12.38;;;8.00;99.80;;;;;;2064276;28;20023;-75
2021/03/03 00:53:21;;;;;;;18.70;12.27;;;8.00;99.90;;;;;;2064146;28;20061;-75
2021/03/03 00:54:22;;;;;;;19.70;11.40;;;8.00;99.90;;;;;;2064228;28;20023;-75
2021/03/03 00:55:22;;;;;;;19.20;11.90;;;8.00;99.90;;;;;;2064067;28;20029;-75
2021/03/03 00:56:23;;;;;;;19.00;11.90;;;8.00;99.90;;;;;;2064175;28;20029;-75
2021/03/03 00:57:23;;;;;;;19.40;11.65;;;8.00;99.90;;;;;;2063743;28;20057;-75
2021/03/03 00:58:24;;;;;;;19.98;11.48;;;7.90;99.90;;;;;;2064207;28;20018;-75
2021/03/03 00:59:25;;;;;;;22.85;12.32;;;7.90;99.90;;;;;;2064285;28;20112;-75
2021/03/03 01:00:25;;;;;;;18.52;12.32;;;7.90;99.90;;;;;;2064293;28;20026;-74
2021/03/03 01:01:26;;;;;;;17.90;11.77;;;7.90;99.90;;;;;;2064187;28;20023;-75
2021/03/03 01:02:27;;;;;;;22.48;12.02;;;7.90;99.90;;;;;;2064296;28;20029;-74
2021/03/03 01:03:27;;;;;;;18.15;12.48;;;7.90;99.90;;;;;;2064313;28;20082;-74
2021/03/03 01:04:28;;;;;;;21.50;12.38;;;7.90;99.90;;;;;;2071785;28;20026;-75
2021/03/03 01:05:28;;;;;;;19.83;11.98;;;7.90;99.90;;;;;;2071693;28;20033;-74
2021/03/03 01:06:29;;;;;;;17.35;11.98;;;7.80;99.90;;;;;;2064199;28;20019;-75
2021/03/03 01:07:29;;;;;;;20.90;12.75;;;7.80;99.90;;;;;;2063898;28;20049;-75
2021/03/03 01:08:30;;;;;;;19.70;12.95;;;7.80;99.90;;;;;;2063501;28;20045;-75
2021/03/03 01:09:31;;;;;;;18.52;12.20;;;7.80;99.90;;;;;;2063775;28;20026;-75
2021/03/03 01:10:31;;;;;;;20.35;12.82;;;7.80;99.90;;;;;;2071600;28;20049;-74
2021/03/03 01:11:32;;;;;;;20.05;12.75;;;7.80;99.90;;;;;;2063513;28;20030;-75
2021/03/03 01:12:32;;;;;;;27.30;12.95;;;7.80;99.90;;;;;;2063693;28;20125;-74
2021/03/03 01:13:35;;;;;;;21.70;13.43;;;7.70;99.90;;;;;;2064091;28;20026;-74
2021/03/03 01:14:35;;;;;;;19.70;12.32;;;7.70;99.90;;;;;;2064318;28;20464;-75
2021/03/03 01:15:36;;;;;;;21.88;12.20;;;7.70;99.90;;;;;;2064151;28;20027;-75
2021/03/03 01:16:36;;;;;;;18.60;11.95;;;7.70;99.90;;;;;;2063968;28;20030;-75
2021/03/03 01:17:38;;;;;;;20.85;12.80;;;7.70;99.90;;;;;;2063666;28;20050;-75
2021/03/03 01:18:38;;;;;;;21.77;12.85;;;7.70;99.90;;;;;;2063989;28;20028;-74
2021/03/03 01:19:39;;;;;;;16.33;11.75;;;7.70;99.90;;;;;;2071617;28;20037;-74
2021/03/03 01:20:39;;;;;;;21.23;11.73;;;7.70;99.90;;;;;;2071776;28;20037;-75
2021/03/03 01:21:40;;;;;;;17.15;11.38;;;7.70;99.90;;;;;;2064123;28;20050;-73
2021/03/03 01:22:41;;;;;;;17.55;12.18;;;7.70;99.90;;;;;;2064077;28;20034;-76
2021/03/03 01:23:41;;;;;;;21.77;12.65;;;7.70;99.90;;;;;;2063338;28;20485;-76
2021/03/03 01:24:42;;;;;;;17.75;12.48;;;7.60;99.90;;;;;;2063627;28;20031;-76
2021/03/03 01:25:42;;;;;;;19.77;12.10;;;7.60;99.90;;;;;;2063875;28;20030;-73
2021/03/03 01:26:43;;;;;;;18.35;11.80;;;7.60;99.90;;;;;;2063795;28;20049;-76
2021/03/03 01:27:44;;;;;;;21.38;12.70;;;7.60;99.90;;;;;;2063995;28;20065;-76
2021/03/03 01:28:44;;;;;;;21.35;11.95;;;7.60;99.90;;;;;;2063115;28;20382;-76
2021/03/03 01:29:45;;;;;;;18.50;12.13;;;7.60;99.90;;;;;;2063604;28;20026;-76
2021/03/03 01:30:46;;;;;;;18.63;11.38;;;7.60;99.90;;;;;;2063940;28;20038;-76
2021/03/03 01:31:47;;;;;;;21.33;12.63;;;7.60;99.90;;;;;;2064071;28;20486;-76
2021/03/03 01:32:47;;;;;;;20.15;12.73;;;7.60;99.90;;;;;;2064106;28;20081;-75
2021/03/03 01:33:48;;;;;;;22.08;12.48;;;7.60;99.90;;;;;;2063818;28;20025;-76
2021/03/03 01:34:48;;;;;;;17.13;11.98;;;7.60;99.90;;;;;;2064012;28;20077;-74
2021/03/03 01:35:49;;;;;;;21.58;12.65;;;7.60;99.90;;;;;;2064074;28;20126;-75
2021/03/03 01:36:49;;;;;;;19.10;12.50;;;7.60;99.90;;;;;;2063507;28;20030;-75
2021/03/03 01:37:50;;;;;;;20.60;12.65;;;7.60;99.90;;;;;;2064098;28;20041;-74
2021/03/03 01:38:51;;;;;;;23.98;12.65;;;7.60;99.90;;;;;;2063971;28;20106;-75
2021/03/03 01:39:51;;;;;;;25.35;13.45;;;7.60;99.90;;;;;;2063383;28;20089;-74
2021/03/03 01:40:53;;;;;;;17.83;11.90;;;7.50;99.90;;;;;;2055154;28;20030;-75
2021/03/03 01:41:53;;;;;;;17.67;11.93;;;7.60;99.90;;;;;;2063045;28;20481;-74
2021/03/03 01:42:54;;;;;;;18.90;12.60;;;7.50;99.90;;;;;;2063938;28;20026;-74
2021/03/03 01:43:55;;;;;;;18.83;11.68;;;7.50;99.90;;;;;;2064056;28;20488;-75
2021/03/03 01:44:55;;;;;;;20.58;12.38;;;7.50;99.90;;;;;;2063917;28;20081;-74
2021/03/03 01:45:56;;;;;;;20.15;12.20;;;7.50;99.90;;;;;;2071672;28;20018;-74
2021/03/03 01:46:56;;;;;;;18.15;11.85;;;7.40;99.90;;;;;;2071020;28;20084;-75
2021/03/03 01:47:57;;;;;;;19.88;12.80;;;7.40;99.90;;;;;;2063995;28;20034;-75
2021/03/03 01:48:57;;;;;;;21.98;13.80;;;7.40;99.90;;;;;;2063832;28;20421;-75
2021/03/03 01:49:58;;;;;;;17.77;12.02;;;7.40;99.90;;;;;;2063968;28;20037;-75
2021/03/03 01:50:59;;;;;;;27.40;12.50;;;7.40;99.90;;;;;;2064001;28;20038;-75
2021/03/03 01:51:59;;;;;;;16.48;11.68;;;7.40;99.90;;;;;;2064085;28;20022;-74
2021/03/03 01:53:01;;;;;;;21.85;12.05;;;7.40;99.90;;;;;;2071427;28;20468;-75
2021/03/03 01:54:01;;;;;;;22.75;13.18;;;7.40;99.90;;;;;;2063360;28;20019;-74
2021/03/03 01:55:03;;;;;;;21.33;12.40;;;7.40;99.90;;;;;;2063347;28;20046;-75
2021/03/03 01:56:04;;;;;;;18.83;12.45;;;7.40;99.90;;;;;;2063926;28;20141;-74
2021/03/03 01:57:06;;;;;;;18.60;12.10;;;7.40;99.90;;;;;;2062928;28;20034;-75
2021/03/03 01:58:06;;;;;;;19.40;11.82;;;7.40;99.90;;;;;;2063176;28;20015;-75
2021/03/03 01:59:07;;;;;;;23.70;12.65;;;7.30;99.90;;;;;;2063851;28;20493;-75
2021/03/03 02:00:08;;;;;;;16.10;12.43;;;7.30;99.90;;;;;;2064076;28;20099;-74
2021/03/03 02:01:09;;;;;;;19.38;12.07;;;7.30;99.90;;;;;;2064234;28;20077;-74
2021/03/03 02:02:09;;;;;;;19.70;12.10;;;7.30;99.90;;;;;;2063825;28;20023;-75
2021/03/03 02:03:10;;;;;;;18.27;12.05;;;7.30;99.90;;;;;;2061183;28;20041;-74
2021/03/03 02:04:11;;;;;;;17.52;11.75;;;7.20;99.90;;;;;;2063865;28;20022;-75
2021/03/03 02:05:13;;;;;;;18.00;12.15;;;7.20;99.90;;;;;;2063795;28;20046;-75
2021/03/03 02:06:42;;;;;;;17.92;12.50;;;7.20;99.90;;;;;;2064024;28;20045;-75
2021/03/03 02:08:01;;;;;;;21.73;12.73;;;7.20;99.90;;;;;;2071176;28;20069;-75
2021/03/03 02:09:25;;;;;;;19.95;11.35;;;7.20;99.90;;;;;;2069131;28;20018;-74
2021/03/03 02:10:50;;;;;;;19.55;12.60;;;7.10;99.90;;;;;;2063936;28;20023;-74
2021/03/03 02:11:58;;;;;;;21.48;13.00;;;7.10;99.90;;;;;;2063817;28;20030;-74
2021/03/03 02:13:04;;;;;;;25.83;12.93;;;7.10;99.90;;;;;;2063735;28;20351;-75
2021/03/03 02:14:08;;;;;;;19.67;11.85;;;7.00;99.90;;;;;;2063742;28;20061;-75
2021/03/03 02:15:10;;;;;;;20.70;12.63;;;7.10;99.90;;;;;;2063785;28;20389;-75
2021/03/03 02:16:13;;;;;;;17.67;10.98;;;7.00;99.90;;;;;;2063941;28;20026;-74
2021/03/03 02:17:14;;;;;;;20.13;12.90;;;7.10;99.90;;;;;;2063400;28;20478;-75
2021/03/03 02:18:18;;;;;;;19.55;12.18;;;7.00;99.90;;;;;;2063931;28;20118;-75
2021/03/03 02:19:23;;;;;;;21.35;12.07;;;7.10;99.90;;;;;;2071231;28;20026;-75
2021/03/03 02:20:27;;;;;;;19.33;11.80;;;7.00;99.90;;;;;;2070923;28;20014;-75
2021/03/03 02:21:42;;;;;;;20.50;12.52;;;7.00;99.90;;;;;;2063852;28;20082;-75
2021/03/03 02:22:52;;;;;;;18.95;11.15;;;7.00;99.90;;;;;;2063820;28;20022;-75
2021/03/03 02:24:09;;;;;;;17.23;11.70;;;7.00;99.90;;;;;;2063796;28;20744;-74
2021/03/03 02:25:27;;;;;;;23.50;13.27;;;7.00;99.90;;;;;;2063739;28;20408;-75
2021/03/03 02:26:35;;;;;;;18.48;12.73;;;6.90;99.90;;;;;;2063784;28;20492;-74
2021/03/03 02:27:36;;;;;;;18.67;12.00;;;6.90;99.90;;;;;;2063566;28;20382;-74
2021/03/03 02:28:37;;;;;;;21.20;13.40;;;6.90;99.90;;;;;;2063316;28;20097;-74
2021/03/03 02:29:38;;;;;;;19.77;13.35;;;6.90;99.90;;;;;;2063528;28;20027;-75
2021/03/03 02:30:41;;;;;;;19.17;12.75;;;6.90;99.90;;;;;;2063982;28;20081;-74
2021/03/03 02:31:44;;;;;;;21.55;12.35;;;6.90;99.90;;;;;;2063771;28;20682;-74
2021/03/03 02:32:45;;;;;;;23.02;12.65;;;6.90;99.90;;;;;;2063820;28;20092;-75
2021/03/03 02:33:46;;;;;;;20.98;12.93;;;6.90;99.90;;;;;;2063624;28;20686;-74
2021/03/03 02:34:48;;;;;;;20.42;13.05;;;6.90;99.90;;;;;;2063804;28;20023;-75
2021/03/03 02:35:49;;;;;;;22.67;13.02;;;6.90;99.90;;;;;;2071976;28;20025;-75
2021/03/03 02:36:51;;;;;;;23.30;13.05;;;6.80;99.90;;;;;;2072344;28;20114;-74
2021/03/03 02:37:52;;;;;;;19.55;12.43;;;6.90;99.90;;;;;;2065300;28;20429;-75
2021/03/03 02:38:53;;;;;;;22.58;13.27;;;6.80;99.90;;;;;;2065103;28;20037;-74
2021/03/03 02:39:55;;;;;;;19.45;13.15;;;6.80;99.90;;;;;;2065386;28;20481;-75
2021/03/03 02:40:56;;;;;;;20.60;12.95;;;6.80;99.90;;;;;;2065352;28;20026;-74
2021/03/03 02:41:58;;;;;;;22.63;12.95;;;6.80;99.90;;;;;;2065391;28;20027;-75
2021/03/03 02:43:00;;;;;;;21.67;13.10;;;6.80;99.90;;;;;;2065296;28;20373;-75
2021/03/03 02:44:04;;;;;;;18.73;12.48;;;6.80;99.90;;;;;;2065342;28;20026;-75
2021/03/03 02:45:09;;;;;;;24.55;13.15;;;6.80;99.90;;;;;;2072733;28;20546;-75
2021/03/03 02:46:10;;;;;;;18.67;12.43;;;6.80;99.90;;;;;;2072442;28;20389;-75
2021/03/03 02:47:12;;;;;;;20.58;12.05;;;6.80;99.90;;;;;;2072165;28;20116;-75
2021/03/03 02:48:16;;;;;;;22.88;12.13;;;6.80;99.90;;;;;;2072358;28;20025;-75
2021/03/03 02:49:20;;;;;;;18.60;12.52;;;6.80;99.90;;;;;;2064450;28;20114;-75
2021/03/03 02:50:20;;;;;;;20.15;12.32;;;6.70;99.90;;;;;;2064852;28;20022;-75
2021/03/03 02:51:21;;;;;;;20.08;13.02;;;6.70;99.90;;;;;;2065231;28;20080;-75
2021/03/03 02:52:22;;;;;;;21.83;13.23;;;6.80;99.90;;;;;;2072695;28;20029;-75
2021/03/03 02:53:23;;;;;;;17.85;12.25;;;6.70;99.90;;;;;;2072669;28;20559;-75
2021/03/03 02:54:23;;;;;;;20.88;12.02;;;6.70;99.90;;;;;;2064667;28;20026;-75
2021/03/03 02:55:26;;;;;;;19.63;12.52;;;6.70;99.90;;;;;;2064527;28;20034;-75
2021/03/03 02:56:28;;;;;;;19.55;13.02;;;6.70;99.90;;;;;;2072479;28;20022;-76
2021/03/03 02:57:29;;;;;;;20.75;13.05;;;6.70;99.90;;;;;;2064126;28;20029;-75
2021/03/03 02:58:29;;;;;;;20.77;12.07;;;6.70;99.90;;;;;;2064564;28;20033;-74
2021/03/03 02:59:39;;;;;;;25.38;12.80;;;6.70;99.90;;;;;;2065126;28;20061;-75
2021/03/03 03:00:42;;;;;;;16.95;12.20;;;6.60;99.90;;;;;;2064747;28;20033;-74
2021/03/03 03:01:45;;;;;;;20.25;12.07;;;6.70;99.90;;;;;;2065367;28;20050;-75
2021/03/03 03:02:50;;;;;;;17.55;11.82;;;6.60;99.90;;;;;;2065160;28;20030;-75
2021/03/03 03:04:01;;;;;;;17.15;11.70;;;6.60;99.90;;;;;;2065203;28;20022;-75
2021/03/03 03:05:04;;;;;;;21.35;12.93;;;6.60;99.90;;;;;;2065917;28;20032;-75
2021/03/03 03:06:12;;;;;;;23.40;12.95;;;6.60;99.90;;;;;;2065865;28;20070;-75
2021/03/03 03:07:17;;;;;;;17.85;10.73;;;6.60;99.90;;;;;;2065458;28;20393;-75
2021/03/03 03:08:21;;;;;;;18.85;12.20;;;6.60;99.90;;;;;;2065616;28;20029;-74
2021/03/03 03:09:24;;;;;;;18.90;12.40;;;6.60;99.90;;;;;;2065860;28;20400;-74
2021/03/03 03:10:26;;;;;;;20.48;11.85;;;6.60;99.90;;;;;;2065928;28;20381;-74
2021/03/03 03:11:29;;;;;;;17.85;11.00;;;6.60;99.90;;;;;;2065259;28;20121;-74
2021/03/03 03:12:31;;;;;;;16.65;11.00;;;6.60;99.90;;;;;;2065454;28;20035;-74
2021/03/03 03:13:35;;;;;;;16.50;10.77;;;6.60;99.90;;;;;;2072966;28;20511;-74
2021/03/03 03:14:37;;;;;;;19.25;12.70;;;6.60;99.90;;;;;;2065798;28;20026;-74
2021/03/03 03:15:39;;;;;;;23.88;14.00;;;6.50;99.90;;;;;;2073144;28;20077;-74
2021/03/03 03:16:40;;;;;;;18.88;11.65;;;6.60;99.90;;;;;;2073083;28;20030;-74
2021/03/03 03:17:42;;;;;;;18.65;12.95;;;6.60;99.90;;;;;;2065294;28;20442;-74
2021/03/03 03:18:46;;;;;;;19.13;12.95;;;6.50;99.90;;;;;;2065193;28;20116;-74
2021/03/03 03:19:50;;;;;;;21.20;12.32;;;6.50;99.90;;;;;;2065289;28;20073;-75
2021/03/03 03:20:52;;;;;;;19.33;12.88;;;6.50;99.90;;;;;;2065321;28;20018;-74
2021/03/03 03:21:54;;;;;;;18.63;12.18;;;6.50;99.90;;;;;;2065771;28;20414;-75
2021/03/03 03:22:57;;;;;;;19.17;12.02;;;6.50;99.90;;;;;;2065599;28;20018;-74
2021/03/03 03:24:00;;;;;;;19.00;12.35;;;6.50;99.90;;;;;;2065646;28;20018;-75
2021/03/03 03:25:03;;;;;;;25.42;13.18;;;6.50;99.90;;;;;;2065687;28;20033;-74
2021/03/03 03:26:04;;;;;;;21.10;13.25;;;6.50;99.90;;;;;;2065738;28;20022;-74
2021/03/03 03:27:06;;;;;;;17.20;10.77;;;6.40;99.90;;;;;;2065322;28;20022;-75
2021/03/03 03:28:07;;;;;;;18.27;11.80;;;6.40;99.90;;;;;;2065407;28;20022;-74
2021/03/03 03:29:08;;;;;;;19.80;12.38;;;6.40;99.90;;;;;;2065747;28;20027;-74
2021/03/03 03:30:12;;;;;;;18.42;12.15;;;6.40;99.90;;;;;;2065764;28;20460;-74
2021/03/03 03:31:12;;;;;;;17.55;11.52;;;6.40;99.90;;;;;;2065717;28;20034;-74
2021/03/03 03:32:14;;;;;;;18.58;11.90;;;6.40;99.90;;;;;;2065560;28;20528;-74
2021/03/03 03:33:16;;;;;;;19.98;12.23;;;6.40;99.90;;;;;;2065012;28;20429;-74
2021/03/03 03:34:17;;;;;;;16.65;10.85;;;6.40;99.90;;;;;;2065473;28;20390;-73
2021/03/03 03:35:19;;;;;;;16.58;11.07;;;6.40;99.90;;;;;;2065495;28;20470;-73
2021/03/03 03:36:21;;;;;;;19.60;12.27;;;6.40;99.90;;;;;;2065668;28;20026;-73
2021/03/03 03:37:24;;;;;;;17.75;11.00;;;6.40;99.90;;;;;;2065231;28;20035;-74
2021/03/03 03:38:27;;;;;;;16.63;10.98;;;6.30;99.90;;;;;;2072863;28;20021;-73
2021/03/03 03:39:28;;;;;;;17.85;11.75;;;6.30;99.90;;;;;;2072586;28;20030;-75
2021/03/03 03:40:28;;;;;;;16.58;10.95;;;6.30;99.90;;;;;;2065606;28;20068;-74
2021/03/03 03:41:32;;;;;;;22.05;12.27;;;6.30;99.90;;;;;;2065601;28;20026;-74
2021/03/03 03:42:33;;;;;;;17.80;11.80;;;6.30;99.90;;;;;;2065660;28;20069;-74
2021/03/03 03:43:36;;;;;;;22.75;12.50;;;6.30;99.90;;;;;;2072655;28;20060;-73
2021/03/03 03:44:38;;;;;;;18.50;12.38;;;6.30;99.90;;;;;;2064952;28;20018;-73
2021/03/03 03:45:40;;;;;;;17.35;12.18;;;6.30;99.90;;;;;;2065000;28;20022;-74
2021/03/03 03:46:42;;;;;;;19.83;13.00;;;6.30;99.90;;;;;;2065333;28;20581;-74
2021/03/03 03:47:43;;;;;;;16.38;11.20;;;6.30;99.90;;;;;;2065273;28;20460;-74
2021/03/03 03:48:44;;;;;;;21.00;11.77;;;6.30;99.90;;;;;;2065409;28;20026;-74
2021/03/03 03:49:45;;;;;;;17.15;11.45;;;6.30;99.90;;;;;;2065461;28;20405;-74
2021/03/03 03:50:47;;;;;;;17.77;10.77;;;6.30;99.90;;;;;;2064981;28;20505;-74
2021/03/03 03:51:47;;;;;;;20.17;12.40;;;6.30;99.90;;;;;;2064958;28;20033;-74
2021/03/03 03:52:52;;;;;;;18.55;12.25;;;6.20;99.90;;;;;;2065581;28;20033;-74
2021/03/03 03:53:53;;;;;;;17.55;11.55;;;6.20;99.90;;;;;;2064919;28;20663;-74
2021/03/03 03:54:54;;;;;;;15.95;11.13;;;6.20;99.90;;;;;;2065362;28;20026;-74
2021/03/03 03:55:55;;;;;;;18.45;12.45;;;6.20;99.90;;;;;;2065426;28;20037;-74
2021/03/03 03:56:55;;;;;;;17.50;10.63;;;6.20;99.90;;;;;;2064525;28;20065;-74
2021/03/03 03:57:56;;;;;;;20.02;12.77;;;6.20;99.90;;;;;;2064878;28;20034;-73
2021/03/03 03:58:56;;;;;;;18.20;11.23;;;6.20;99.90;;;;;;2065322;28;20513;-74
2021/03/03 03:59:57;;;;;;;18.35;11.70;;;6.10;99.90;;;;;;2064819;28;20080;-74
2021/03/03 04:00:58;;;;;;;17.50;10.00;;;6.10;99.90;;;;;;2056679;28;20019;-74
2021/03/03 04:01:58;;;;;;;16.92;12.20;;;6.10;99.90;;;;;;2064352;28;20022;-74
2021/03/03 04:03:00;;;;;;;16.95;10.65;;;6.10;99.90;;;;;;2064910;28;20033;-74
2021/03/03 04:04:00;;;;;;;20.33;11.70;;;6.10;99.90;;;;;;2064933;28;20030;-74
2021/03/03 04:05:01;;;;;;;21.88;12.95;;;6.10;99.90;;;;;;2065056;28;20053;-73
2021/03/03 04:06:02;;;;;;;20.73;11.45;;;6.10;99.90;;;;;;2064975;28;20029;-74
2021/03/03 04:07:04;;;;;;;21.42;12.07;;;6.10;99.90;;;;;;2064632;28;20018;-74
2021/03/03 04:08:05;;;;;;;16.85;11.68;;;6.10;99.90;;;;;;2064624;28;20486;-75
2021/03/03 04:09:05;;;;;;;16.20;11.63;;;6.10;99.90;;;;;;2072436;28;20022;-74
2021/03/03 04:10:08;;;;;;;16.58;10.75;;;6.10;99.90;;;;;;2072349;28;20029;-74
2021/03/03 04:11:09;;;;;;;17.60;12.25;;;6.10;99.90;;;;;;2064893;28;20053;-74
2021/03/03 04:12:09;;;;;;;17.30;12.20;;;6.00;99.90;;;;;;2064482;28;20093;-74
2021/03/03 04:13:10;;;;;;;16.92;11.77;;;6.00;99.90;;;;;;2072147;28;20041;-74
2021/03/03 04:14:11;;;;;;;18.30;11.90;;;6.00;99.90;;;;;;2072008;28;20026;-74
2021/03/03 04:15:12;;;;;;;18.67;10.32;;;6.00;99.90;;;;;;2064075;28;20029;-73
2021/03/03 04:16:13;;;;;;;19.42;11.75;;;6.00;99.90;;;;;;2064818;28;20038;-74
2021/03/03 04:17:13;;;;;;;18.17;12.70;;;6.00;99.90;;;;;;2071789;28;20033;-75
2021/03/03 04:18:14;;;;;;;21.00;12.50;;;6.00;99.90;;;;;;2071843;28;20014;-73
2021/03/03 04:19:15;;;;;;;22.95;12.60;;;5.90;99.90;;;;;;2064464;28;20026;-74
2021/03/03 04:20:17;;;;;;;19.27;11.77;;;6.00;99.90;;;;;;2064892;28;20500;-74
2021/03/03 04:21:18;;;;;;;18.90;12.43;;;5.90;99.90;;;;;;2064754;28;20033;-74
2021/03/03 04:22:18;;;;;;;15.95;11.20;;;5.90;99.90;;;;;;2072234;28;20473;-74
2021/03/03 04:23:19;;;;;;;20.98;11.93;;;5.90;99.90;;;;;;2071978;28;20184;-74
2021/03/03 04:24:20;;;;;;;16.60;10.80;;;5.90;99.90;;;;;;2072081;28;20117;-74
2021/03/03 04:25:20;;;;;;;19.35;11.93;;;5.90;99.90;;;;;;2064522;28;20036;-74
2021/03/03 04:26:21;;;;;;;23.40;13.52;;;5.90;99.90;;;;;;2064580;28;20577;-73
2021/03/03 04:27:21;;;;;;;23.10;13.75;;;5.90;99.90;;;;;;2063734;28;20049;-74
2021/03/03 04:28:22;;;;;;;16.85;11.02;;;5.90;99.90;;;;;;2063922;28;20051;-74
2021/03/03 04:29:22;;;;;;;18.77;12.20;;;5.90;99.90;;;;;;2071891;28;20060;-74
2021/03/03 04:30:23;;;;;;;15.98;9.88;;;5.90;99.90;;;;;;2072223;28;20080;-74
2021/03/03 04:31:24;;;;;;;21.55;12.07;;;5.90;99.90;;;;;;2072013;28;20099;-74
2021/03/03 04:32:24;;;;;;;18.90;12.30;;;5.80;99.90;;;;;;2064615;28;20034;-74
2021/03/03 04:33:25;;;;;;;23.05;12.65;;;5.80;99.90;;;;;;2072036;28;20462;-75
2021/03/03 04:34:26;;;;;;;20.02;11.63;;;5.80;99.90;;;;;;2072063;28;20025;-74
2021/03/03 04:35:26;;;;;;;17.98;10.75;;;5.80;99.90;;;;;;2064454;28;20026;-74
2021/03/03 04:36:27;;;;;;;19.60;12.38;;;5.80;99.90;;;;;;2064540;28;20022;-74
2021/03/03 04:37:27;;;;;;;18.25;11.60;;;5.80;99.90;;;;;;2064130;28;20022;-74
2021/03/03 04:38:28;;;;;;;21.63;12.98;;;5.80;99.90;;;;;;2064428;28;20053;-74
2021/03/03 04:39:29;;;;;;;24.67;13.65;;;5.80;99.90;;;;;;2063672;28;20030;-74
2021/03/03 04:40:29;;;;;;;18.05;12.15;;;5.80;99.90;;;;;;2063972;28;20605;-73
2021/03/03 04:41:30;;;;;;;25.45;13.32;;;5.80;99.90;;;;;;2064410;28;20026;-74
2021/03/03 04:42:31;;;;;;;21.40;13.00;;;5.80;99.90;;;;;;2064538;28;20026;-74
2021/03/03 04:43:31;;;;;;;19.25;12.07;;;5.70;99.90;;;;;;2064193;28;20097;-74
2021/03/03 04:44:32;;;;;;;17.42;11.77;;;5.70;99.90;;;;;;2064274;28;20022;-74
2021/03/03 04:45:33;;;;;;;24.20;13.15;;;5.70;99.90;;;;;;2064426;28;20029;-74
2021/03/03 04:46:34;;;;;;;19.00;12.18;;;5.70;99.90;;;;;;2064424;28;20117;-74
2021/03/03 04:47:35;;;;;;;18.70;12.98;;;5.70;99.90;;;;;;2063998;28;20045;-74
2021/03/03 04:48:35;;;;;;;19.90;11.82;;;5.70;99.90;;;;;;2064396;28;20382;-74
2021/03/03 04:49:36;;;;;;;13.85;10.23;;;5.70;99.90;;;;;;2064278;28;20022;-74
2021/03/03 04:50:37;;;;;;;26.15;12.55;;;5.70;99.90;;;;;;2064380;28;20033;-73
2021/03/03 04:51:38;;;;;;;21.95;13.38;;;5.70;99.90;;;;;;2064361;28;20026;-73
2021/03/03 04:52:39;;;;;;;18.40;13.25;;;5.70;99.90;;;;;;2064377;28;20069;-74
2021/03/03 04:53:39;;;;;;;19.67;12.32;;;5.70;99.90;;;;;;2064227;28;20120;-75
2021/03/03 04:54:40;;;;;;;24.00;13.00;;;5.70;99.90;;;;;;2064411;28;20081;-74
2021/03/03 04:55:40;;;;;;;17.17;11.25;;;5.70;99.90;;;;;;2064346;28;20533;-73
2021/03/03 04:56:41;;;;;;;14.30;10.48;;;5.70;99.90;;;;;;2064217;28;20120;-74
2021/03/03 04:57:42;;;;;;;20.50;12.20;;;5.70;99.90;;;;;;2071516;28;20030;-74
2021/03/03 04:58:43;;;;;;;20.77;13.02;;;5.70;99.90;;;;;;2071011;28;20040;-74
2021/03/03 04:59:43;;;;;;;19.63;12.45;;;5.70;99.90;;;;;;2064204;28;20061;-74
2021/03/03 05:00:44;;;;;;;20.45;13.15;;;5.70;99.90;;;;;;2064158;28;20513;-74
2021/03/03 05:01:45;;;;;;;21.02;12.50;;;5.70;99.90;;;;;;2071764;28;20384;-73
2021/03/03 05:02:45;;;;;;;20.13;13.02;;;5.70;99.90;;;;;;2071764;28;20018;-74
2021/03/03 05:03:46;;;;;;;18.65;11.88;;;5.70;99.90;;;;;;2064206;28;20097;-74
2021/03/03 05:04:47;;;;;;;20.20;12.65;;;5.70;99.90;;;;;;2064329;28;20030;-74
2021/03/03 05:05:47;;;;;;;18.05;10.80;;;5.60;99.90;;;;;;2064097;28;20073;-73
2021/03/03 05:06:48;;;;;;;20.75;12.35;;;5.70;99.90;;;;;;2063981;28;20385;-74
2021/03/03 05:07:49;;;;;;;24.95;13.93;;;5.70;99.90;;;;;;2064272;28;20023;-74
2021/03/03 05:08:50;;;;;;;21.92;14.15;;;5.60;99.90;;;;;;2064111;28;20042;-74
2021/03/03 05:09:50;;;;;;;21.08;12.50;;;5.60;99.90;;;;;;2064158;28;20030;-74
2021/03/03 05:10:51;;;;;;;20.88;12.57;;;5.70;99.90;;;;;;2063825;28;20481;-75
2021/03/03 05:11:51;;;;;;;23.40;12.77;;;5.60;99.90;;;;;;2064091;28;20038;-74
2021/03/03 05:12:52;;;;;;;21.00;12.63;;;5.70;99.90;;;;;;2064096;28;20466;-74
2021/03/03 05:13:53;;;;;;;21.95;12.77;;;5.70;99.90;;;;;;2064132;28;20026;-75
2021/03/03 05:14:53;;;;;;;22.98;12.75;;;5.60;99.90;;;;;;2071505;28;20032;-74
2021/03/03 05:15:54;;;;;;;22.67;13.68;;;5.70;99.90;;;;;;2071623;28;20473;-75
2021/03/03 05:16:54;;;;;;;22.45;12.95;;;5.70;99.90;;;;;;2063210;28;20061;-74